sensor_id;sensor_type;location;lat;lon;timestamp;P1;durP1;ratioP1;P2;durP2;ratioP2
54815;SDS011;40715;55.752;37.884;2022-12-07T00:01:05;1.80;;;0.50;;
54815;SDS011;40715;55.752;37.884;2022-12-07T00:03:38;1.60;;;0.67;;
54815;SDS011;40715;55.752;37.884;2022-12-07T00:06:07;0.33;;;0.30;;
54815;SDS011;40715;55.752;37.884;2022-12-07T00:08:35;0.93;;;0.70;;
54815;SDS011;40715;55.752;37.884;2022-12-07T00:13:39;0.90;;;0.68;;
54815;SDS011;40715;55.752;37.884;2022-12-07T00:16:08;1.27;;;0.93;;
54815;SDS011;40715;55.752;37.884;2022-12-07T00:18:37;1.70;;;0.73;;
54815;SDS011;40715;55.752;37.884;2022-12-07T00:21:11;0.50;;;0.27;;
54815;SDS011;40715;55.752;37.884;2022-12-07T00:23:41;1.30;;;0.47;;
54815;SDS011;40715;55.752;37.884;2022-12-07T00:26:10;1.73;;;0.77;;
54815;SDS011;40715;55.752;37.884;2022-12-07T00:28:39;1.07;;;0.63;;
54815;SDS011;40715;55.752;37.884;2022-12-07T00:31:10;2.87;;;0.93;;
54815;SDS011;40715;55.752;37.884;2022-12-07T00:33:38;0.60;;;0.47;;
54815;SDS011;40715;55.752;37.884;2022-12-07T00:36:10;0.60;;;0.60;;
54815;SDS011;40715;55.752;37.884;2022-12-07T00:38:39;0.90;;;0.63;;
54815;SDS011;40715;55.752;37.884;2022-12-07T00:41:20;0.30;;;0.30;;
54815;SDS011;40715;55.752;37.884;2022-12-07T00:43:48;1.47;;;0.87;;
54815;SDS011;40715;55.752;37.884;2022-12-07T00:46:16;0.67;;;0.50;;
54815;SDS011;40715;55.752;37.884;2022-12-07T00:48:44;0.57;;;0.50;;
54815;SDS011;40715;55.752;37.884;2022-12-07T00:51:11;0.93;;;0.70;;
54815;SDS011;40715;55.752;37.884;2022-12-07T00:53:40;1.67;;;0.80;;
54815;SDS011;40715;55.752;37.884;2022-12-07T00:56:14;0.97;;;0.87;;
54815;SDS011;40715;55.752;37.884;2022-12-07T00:58:43;1.38;;;1.05;;
54815;SDS011;40715;55.752;37.884;2022-12-07T01:01:10;1.43;;;0.63;;
54815;SDS011;40715;55.752;37.884;2022-12-07T01:03:37;0.93;;;0.50;;
54815;SDS011;40715;55.752;37.884;2022-12-07T01:08:55;1.00;;;0.67;;
54815;SDS011;40715;55.752;37.884;2022-12-07T01:11:24;1.40;;;0.77;;
54815;SDS011;40715;55.752;37.884;2022-12-07T01:13:54;0.67;;;0.50;;
54815;SDS011;40715;55.752;37.884;2022-12-07T01:16:23;2.63;;;1.13;;
54815;SDS011;40715;55.752;37.884;2022-12-07T01:18:51;0.60;;;0.40;;
54815;SDS011;40715;55.752;37.884;2022-12-07T01:21:23;1.40;;;0.63;;
54815;SDS011;40715;55.752;37.884;2022-12-07T01:23:52;0.53;;;0.50;;
54815;SDS011;40715;55.752;37.884;2022-12-07T01:26:20;2.20;;;0.60;;
54815;SDS011;40715;55.752;37.884;2022-12-07T01:28:50;2.00;;;0.67;;
54815;SDS011;40715;55.752;37.884;2022-12-07T01:31:19;2.60;;;0.73;;
54815;SDS011;40715;55.752;37.884;2022-12-07T01:33:48;3.80;;;1.43;;
54815;SDS011;40715;55.752;37.884;2022-12-07T01:36:19;1.53;;;0.90;;
54815;SDS011;40715;55.752;37.884;2022-12-07T01:38:50;1.47;;;0.60;;
54815;SDS011;40715;55.752;37.884;2022-12-07T01:41:19;1.80;;;0.80;;
54815;SDS011;40715;55.752;37.884;2022-12-07T01:46:55;1.95;;;0.90;;
54815;SDS011;40715;55.752;37.884;2022-12-07T01:49:26;1.07;;;0.67;;
54815;SDS011;40715;55.752;37.884;2022-12-07T01:52:07;0.87;;;0.60;;
54815;SDS011;40715;55.752;37.884;2022-12-07T01:54:41;0.87;;;0.60;;
54815;SDS011;40715;55.752;37.884;2022-12-07T01:57:10;1.20;;;1.10;;
54815;SDS011;40715;55.752;37.884;2022-12-07T01:59:39;1.27;;;0.57;;
54815;SDS011;40715;55.752;37.884;2022-12-07T02:02:12;1.60;;;0.63;;
54815;SDS011;40715;55.752;37.884;2022-12-07T02:04:53;2.03;;;1.33;;
54815;SDS011;40715;55.752;37.884;2022-12-07T02:07:22;1.73;;;1.23;;
54815;SDS011;40715;55.752;37.884;2022-12-07T02:09:50;2.73;;;1.00;;
54815;SDS011;40715;55.752;37.884;2022-12-07T02:12:17;1.47;;;0.77;;
54815;SDS011;40715;55.752;37.884;2022-12-07T02:15:05;1.80;;;0.67;;
54815;SDS011;40715;55.752;37.884;2022-12-07T02:17:40;0.50;;;0.43;;
54815;SDS011;40715;55.752;37.884;2022-12-07T02:20:35;1.30;;;0.90;;
54815;SDS011;40715;55.752;37.884;2022-12-07T02:29:27;1.90;;;0.97;;
54815;SDS011;40715;55.752;37.884;2022-12-07T02:31:43;2.10;;;1.13;;
54815;SDS011;40715;55.752;37.884;2022-12-07T02:34:47;2.80;;;1.37;;
54815;SDS011;40715;55.752;37.884;2022-12-07T02:37:33;1.33;;;0.82;;
54815;SDS011;40715;55.752;37.884;2022-12-07T02:40:09;1.57;;;0.97;;
54815;SDS011;40715;55.752;37.884;2022-12-07T02:42:43;1.90;;;1.03;;
54815;SDS011;40715;55.752;37.884;2022-12-07T02:45:16;2.60;;;1.13;;
54815;SDS011;40715;55.752;37.884;2022-12-07T02:47:45;1.30;;;0.60;;
54815;SDS011;40715;55.752;37.884;2022-12-07T02:50:17;1.83;;;1.00;;
54815;SDS011;40715;55.752;37.884;2022-12-07T02:52:46;2.10;;;1.03;;
54815;SDS011;40715;55.752;37.884;2022-12-07T02:55:13;2.93;;;1.80;;
54815;SDS011;40715;55.752;37.884;2022-12-07T02:57:51;1.77;;;0.70;;
54815;SDS011;40715;55.752;37.884;2022-12-07T03:00:28;1.73;;;1.40;;
54815;SDS011;40715;55.752;37.884;2022-12-07T03:03:04;3.00;;;1.67;;
54815;SDS011;40715;55.752;37.884;2022-12-07T03:05:47;3.60;;;1.95;;
54815;SDS011;40715;55.752;37.884;2022-12-07T03:11:16;1.07;;;0.87;;
54815;SDS011;40715;55.752;37.884;2022-12-07T03:14:00;2.37;;;1.40;;
54815;SDS011;40715;55.752;37.884;2022-12-07T03:19:39;3.37;;;1.57;;
54815;SDS011;40715;55.752;37.884;2022-12-07T03:22:08;2.73;;;1.73;;
54815;SDS011;40715;55.752;37.884;2022-12-07T03:24:43;2.00;;;1.00;;
54815;SDS011;40715;55.752;37.884;2022-12-07T03:27:19;3.43;;;1.10;;
54815;SDS011;40715;55.752;37.884;2022-12-07T03:29:54;2.57;;;1.73;;
54815;SDS011;40715;55.752;37.884;2022-12-07T03:32:37;1.50;;;0.80;;
54815;SDS011;40715;55.752;37.884;2022-12-07T03:35:21;1.70;;;0.87;;
54815;SDS011;40715;55.752;37.884;2022-12-07T03:37:57;1.80;;;1.30;;
54815;SDS011;40715;55.752;37.884;2022-12-07T03:43:19;1.17;;;0.70;;
54815;SDS011;40715;55.752;37.884;2022-12-07T03:48:53;1.70;;;0.83;;
54815;SDS011;40715;55.752;37.884;2022-12-07T03:51:40;3.80;;;1.33;;
54815;SDS011;40715;55.752;37.884;2022-12-07T03:54:19;1.43;;;0.93;;
54815;SDS011;40715;55.752;37.884;2022-12-07T03:56:54;2.00;;;0.80;;
54815;SDS011;40715;55.752;37.884;2022-12-07T03:59:23;1.80;;;0.90;;
54815;SDS011;40715;55.752;37.884;2022-12-07T04:01:57;0.73;;;0.60;;
54815;SDS011;40715;55.752;37.884;2022-12-07T04:04:29;1.87;;;0.90;;
54815;SDS011;40715;55.752;37.884;2022-12-07T04:06:56;2.27;;;1.20;;
54815;SDS011;40715;55.752;37.884;2022-12-07T04:09:23;1.63;;;0.87;;
54815;SDS011;40715;55.752;37.884;2022-12-07T04:11:50;1.67;;;0.80;;
54815;SDS011;40715;55.752;37.884;2022-12-07T04:14:17;1.37;;;0.80;;
54815;SDS011;40715;55.752;37.884;2022-12-07T04:16:48;2.20;;;0.70;;
54815;SDS011;40715;55.752;37.884;2022-12-07T04:19:20;1.90;;;0.93;;
54815;SDS011;40715;55.752;37.884;2022-12-07T04:21:50;2.17;;;1.13;;
54815;SDS011;40715;55.752;37.884;2022-12-07T04:24:17;2.43;;;0.93;;
54815;SDS011;40715;55.752;37.884;2022-12-07T04:26:44;1.17;;;0.87;;
54815;SDS011;40715;55.752;37.884;2022-12-07T04:29:12;2.60;;;0.80;;
54815;SDS011;40715;55.752;37.884;2022-12-07T04:31:40;2.07;;;1.10;;
54815;SDS011;40715;55.752;37.884;2022-12-07T04:34:07;0.47;;;0.47;;
54815;SDS011;40715;55.752;37.884;2022-12-07T04:36:34;1.90;;;0.97;;
54815;SDS011;40715;55.752;37.884;2022-12-07T04:39:02;0.80;;;0.67;;
54815;SDS011;40715;55.752;37.884;2022-12-07T04:41:31;1.23;;;0.70;;
54815;SDS011;40715;55.752;37.884;2022-12-07T04:44:02;1.60;;;0.77;;
54815;SDS011;40715;55.752;37.884;2022-12-07T04:46:33;1.43;;;0.80;;
54815;SDS011;40715;55.752;37.884;2022-12-07T04:49:00;1.70;;;1.00;;
54815;SDS011;40715;55.752;37.884;2022-12-07T04:51:29;1.80;;;0.93;;
54815;SDS011;40715;55.752;37.884;2022-12-07T04:53:56;2.07;;;0.90;;
54815;SDS011;40715;55.752;37.884;2022-12-07T04:56:23;1.97;;;0.87;;
54815;SDS011;40715;55.752;37.884;2022-12-07T04:58:51;1.90;;;1.00;;
54815;SDS011;40715;55.752;37.884;2022-12-07T05:01:19;1.57;;;0.67;;
54815;SDS011;40715;55.752;37.884;2022-12-07T05:03:48;1.50;;;0.70;;
54815;SDS011;40715;55.752;37.884;2022-12-07T05:06:15;1.40;;;0.73;;
54815;SDS011;40715;55.752;37.884;2022-12-07T05:08:43;1.80;;;0.87;;
54815;SDS011;40715;55.752;37.884;2022-12-07T05:11:11;2.43;;;1.10;;
54815;SDS011;40715;55.752;37.884;2022-12-07T05:14:01;1.67;;;0.90;;
54815;SDS011;40715;55.752;37.884;2022-12-07T05:16:30;1.30;;;0.87;;
54815;SDS011;40715;55.752;37.884;2022-12-07T05:18:57;1.87;;;1.10;;
54815;SDS011;40715;55.752;37.884;2022-12-07T05:21:24;1.53;;;0.90;;
54815;SDS011;40715;55.752;37.884;2022-12-07T05:23:51;1.47;;;1.10;;
54815;SDS011;40715;55.752;37.884;2022-12-07T05:26:18;1.97;;;0.83;;
54815;SDS011;40715;55.752;37.884;2022-12-07T05:28:49;1.40;;;0.83;;
54815;SDS011;40715;55.752;37.884;2022-12-07T05:31:17;2.07;;;1.37;;
54815;SDS011;40715;55.752;37.884;2022-12-07T05:33:45;1.67;;;0.47;;
54815;SDS011;40715;55.752;37.884;2022-12-07T05:36:12;1.40;;;0.80;;
54815;SDS011;40715;55.752;37.884;2022-12-07T05:38:44;1.87;;;0.80;;
54815;SDS011;40715;55.752;37.884;2022-12-07T05:41:13;1.90;;;1.17;;
54815;SDS011;40715;55.752;37.884;2022-12-07T05:44:01;1.57;;;0.90;;
54815;SDS011;40715;55.752;37.884;2022-12-07T05:46:28;1.70;;;0.80;;
54815;SDS011;40715;55.752;37.884;2022-12-07T05:48:55;2.40;;;0.87;;
54815;SDS011;40715;55.752;37.884;2022-12-07T05:51:22;1.73;;;0.90;;
54815;SDS011;40715;55.752;37.884;2022-12-07T05:53:49;2.23;;;1.03;;
54815;SDS011;40715;55.752;37.884;2022-12-07T05:56:16;2.33;;;1.20;;
54815;SDS011;40715;55.752;37.884;2022-12-07T05:58:44;0.90;;;0.40;;
54815;SDS011;40715;55.752;37.884;2022-12-07T06:01:29;1.67;;;0.97;;
54815;SDS011;40715;55.752;37.884;2022-12-07T06:03:57;1.20;;;0.77;;
54815;SDS011;40715;55.752;37.884;2022-12-07T06:06:23;0.67;;;0.40;;
54815;SDS011;40715;55.752;37.884;2022-12-07T06:08:51;1.40;;;0.60;;
54815;SDS011;40715;55.752;37.884;2022-12-07T06:11:18;0.77;;;0.60;;
54815;SDS011;40715;55.752;37.884;2022-12-07T06:14:03;0.10;;;0.10;;
54815;SDS011;40715;55.752;37.884;2022-12-07T06:16:30;0.50;;;0.33;;
54815;SDS011;40715;55.752;37.884;2022-12-07T06:18:57;1.30;;;0.53;;
54815;SDS011;40715;55.752;37.884;2022-12-07T06:21:24;0.10;;;0.10;;
54815;SDS011;40715;55.752;37.884;2022-12-07T06:23:53;0.40;;;0.33;;
54815;SDS011;40715;55.752;37.884;2022-12-07T06:26:20;0.40;;;0.37;;
54815;SDS011;40715;55.752;37.884;2022-12-07T06:28:47;1.00;;;0.67;;
54815;SDS011;40715;55.752;37.884;2022-12-07T06:31:14;0.30;;;0.27;;
54815;SDS011;40715;55.752;37.884;2022-12-07T06:33:41;0.47;;;0.20;;
54815;SDS011;40715;55.752;37.884;2022-12-07T06:36:09;0.33;;;0.20;;
54815;SDS011;40715;55.752;37.884;2022-12-07T06:38:36;0.63;;;0.20;;
54815;SDS011;40715;55.752;37.884;2022-12-07T06:41:03;0.27;;;0.13;;
54815;SDS011;40715;55.752;37.884;2022-12-07T06:43:30;0.20;;;0.10;;
54815;SDS011;40715;55.752;37.884;2022-12-07T06:45:57;0.00;;;0.00;;
54815;SDS011;40715;55.752;37.884;2022-12-07T06:48:24;0.00;;;0.00;;
54815;SDS011;40715;55.752;37.884;2022-12-07T06:50:51;0.30;;;0.30;;
54815;SDS011;40715;55.752;37.884;2022-12-07T06:53:20;0.00;;;0.00;;
54815;SDS011;40715;55.752;37.884;2022-12-07T06:55:49;0.00;;;0.00;;
54815;SDS011;40715;55.752;37.884;2022-12-07T06:58:16;0.00;;;0.00;;
54815;SDS011;40715;55.752;37.884;2022-12-07T07:00:44;0.00;;;0.00;;
54815;SDS011;40715;55.752;37.884;2022-12-07T07:03:11;0.00;;;0.00;;
54815;SDS011;40715;55.752;37.884;2022-12-07T07:05:38;0.00;;;0.00;;
54815;SDS011;40715;55.752;37.884;2022-12-07T07:08:06;0.00;;;0.00;;
54815;SDS011;40715;55.752;37.884;2022-12-07T07:10:49;0.00;;;0.00;;
54815;SDS011;40715;55.752;37.884;2022-12-07T07:13:17;0.00;;;0.00;;
54815;SDS011;40715;55.752;37.884;2022-12-07T07:15:44;0.00;;;0.00;;
54815;SDS011;40715;55.752;37.884;2022-12-07T07:18:11;0.00;;;0.00;;
54815;SDS011;40715;55.752;37.884;2022-12-07T07:20:38;0.00;;;0.00;;
54815;SDS011;40715;55.752;37.884;2022-12-07T07:23:05;0.00;;;0.00;;
54815;SDS011;40715;55.752;37.884;2022-12-07T07:25:33;0.00;;;0.00;;
54815;SDS011;40715;55.752;37.884;2022-12-07T07:28:00;0.00;;;0.00;;
54815;SDS011;40715;55.752;37.884;2022-12-07T07:30:27;0.00;;;0.00;;
54815;SDS011;40715;55.752;37.884;2022-12-07T07:32:57;0.00;;;0.00;;
54815;SDS011;40715;55.752;37.884;2022-12-07T07:35:25;0.00;;;0.00;;
54815;SDS011;40715;55.752;37.884;2022-12-07T07:37:52;0.00;;;0.00;;
54815;SDS011;40715;55.752;37.884;2022-12-07T07:40:21;0.00;;;0.00;;
54815;SDS011;40715;55.752;37.884;2022-12-07T07:42:48;0.00;;;0.00;;
54815;SDS011;40715;55.752;37.884;2022-12-07T07:45:19;0.00;;;0.00;;
54815;SDS011;40715;55.752;37.884;2022-12-07T07:47:48;0.00;;;0.00;;
54815;SDS011;40715;55.752;37.884;2022-12-07T07:50:15;0.00;;;0.00;;
54815;SDS011;40715;55.752;37.884;2022-12-07T07:52:43;0.00;;;0.00;;
54815;SDS011;40715;55.752;37.884;2022-12-07T07:55:10;0.00;;;0.00;;
54815;SDS011;40715;55.752;37.884;2022-12-07T07:57:39;0.00;;;0.00;;
54815;SDS011;40715;55.752;37.884;2022-12-07T08:00:08;0.00;;;0.00;;
54815;SDS011;40715;55.752;37.884;2022-12-07T08:02:39;0.00;;;0.00;;
54815;SDS011;40715;55.752;37.884;2022-12-07T08:05:06;0.00;;;0.00;;
54815;SDS011;40715;55.752;37.884;2022-12-07T08:07:33;0.00;;;0.00;;
54815;SDS011;40715;55.752;37.884;2022-12-07T08:10:01;0.00;;;0.00;;
54815;SDS011;40715;55.752;37.884;2022-12-07T08:12:29;0.00;;;0.00;;
54815;SDS011;40715;55.752;37.884;2022-12-07T08:14:56;0.00;;;0.00;;
54815;SDS011;40715;55.752;37.884;2022-12-07T08:17:23;0.00;;;0.00;;
54815;SDS011;40715;55.752;37.884;2022-12-07T08:19:50;0.00;;;0.00;;
54815;SDS011;40715;55.752;37.884;2022-12-07T08:22:17;0.00;;;0.00;;
54815;SDS011;40715;55.752;37.884;2022-12-07T08:24:44;0.00;;;0.00;;
54815;SDS011;40715;55.752;37.884;2022-12-07T08:27:11;0.00;;;0.00;;
54815;SDS011;40715;55.752;37.884;2022-12-07T08:29:37;0.00;;;0.00;;
54815;SDS011;40715;55.752;37.884;2022-12-07T08:32:04;0.00;;;0.00;;
54815;SDS011;40715;55.752;37.884;2022-12-07T08:34:34;0.00;;;0.00;;
54815;SDS011;40715;55.752;37.884;2022-12-07T08:37:02;0.00;;;0.00;;
54815;SDS011;40715;55.752;37.884;2022-12-07T08:39:29;0.00;;;0.00;;
54815;SDS011;40715;55.752;37.884;2022-12-07T08:41:57;0.00;;;0.00;;
54815;SDS011;40715;55.752;37.884;2022-12-07T08:44:24;0.00;;;0.00;;
54815;SDS011;40715;55.752;37.884;2022-12-07T08:46:56;0.00;;;0.00;;
54815;SDS011;40715;55.752;37.884;2022-12-07T08:49:33;0.00;;;0.00;;
54815;SDS011;40715;55.752;37.884;2022-12-07T08:52:05;0.00;;;0.00;;
54815;SDS011;40715;55.752;37.884;2022-12-07T08:54:34;0.00;;;0.00;;
54815;SDS011;40715;55.752;37.884;2022-12-07T08:57:04;0.00;;;0.00;;
54815;SDS011;40715;55.752;37.884;2022-12-07T08:59:33;0.00;;;0.00;;
54815;SDS011;40715;55.752;37.884;2022-12-07T09:02:02;0.50;;;0.10;;
54815;SDS011;40715;55.752;37.884;2022-12-07T09:04:30;0.43;;;0.23;;
54815;SDS011;40715;55.752;37.884;2022-12-07T09:06:58;0.10;;;0.10;;
54815;SDS011;40715;55.752;37.884;2022-12-07T09:09:25;0.50;;;0.37;;
54815;SDS011;40715;55.752;37.884;2022-12-07T09:11:52;0.10;;;0.10;;
54815;SDS011;40715;55.752;37.884;2022-12-07T09:14:19;0.20;;;0.20;;
54815;SDS011;40715;55.752;37.884;2022-12-07T09:16:46;0.10;;;0.10;;
54815;SDS011;40715;55.752;37.884;2022-12-07T09:19:13;0.50;;;0.27;;
54815;SDS011;40715;55.752;37.884;2022-12-07T09:21:40;0.10;;;0.10;;
54815;SDS011;40715;55.752;37.884;2022-12-07T09:24:06;0.37;;;0.10;;
54815;SDS011;40715;55.752;37.884;2022-12-07T09:26:34;0.10;;;0.10;;
54815;SDS011;40715;55.752;37.884;2022-12-07T09:29:02;1.00;;;0.30;;
54815;SDS011;40715;55.752;37.884;2022-12-07T09:31:29;0.20;;;0.20;;
54815;SDS011;40715;55.752;37.884;2022-12-07T09:33:59;0.30;;;0.20;;
54815;SDS011;40715;55.752;37.884;2022-12-07T09:36:27;0.10;;;0.10;;
54815;SDS011;40715;55.752;37.884;2022-12-07T09:38:55;0.17;;;0.17;;
54815;SDS011;40715;55.752;37.884;2022-12-07T09:41:22;0.00;;;0.00;;
54815;SDS011;40715;55.752;37.884;2022-12-07T09:43:51;0.30;;;0.10;;
54815;SDS011;40715;55.752;37.884;2022-12-07T09:46:19;0.10;;;0.10;;
54815;SDS011;40715;55.752;37.884;2022-12-07T09:48:47;0.10;;;0.10;;
54815;SDS011;40715;55.752;37.884;2022-12-07T09:51:23;0.10;;;0.10;;
54815;SDS011;40715;55.752;37.884;2022-12-07T09:53:52;0.97;;;0.47;;
54815;SDS011;40715;55.752;37.884;2022-12-07T09:56:20;0.23;;;0.20;;
54815;SDS011;40715;55.752;37.884;2022-12-07T09:58:49;0.50;;;0.23;;
54815;SDS011;40715;55.752;37.884;2022-12-07T10:01:19;0.23;;;0.20;;
54815;SDS011;40715;55.752;37.884;2022-12-07T10:06:39;0.23;;;0.20;;
54815;SDS011;40715;55.752;37.884;2022-12-07T10:09:13;0.30;;;0.23;;
54815;SDS011;40715;55.752;37.884;2022-12-07T10:14:28;0.00;;;0.00;;
54815;SDS011;40715;55.752;37.884;2022-12-07T10:17:36;0.60;;;0.40;;
54815;SDS011;40715;55.752;37.884;2022-12-07T10:20:13;0.33;;;0.30;;
54815;SDS011;40715;55.752;37.884;2022-12-07T10:22:55;0.47;;;0.47;;
54815;SDS011;40715;55.752;37.884;2022-12-07T10:25:35;0.30;;;0.30;;
54815;SDS011;40715;55.752;37.884;2022-12-07T10:35:59;0.33;;;0.33;;
54815;SDS011;40715;55.752;37.884;2022-12-07T10:38:27;0.47;;;0.33;;
54815;SDS011;40715;55.752;37.884;2022-12-07T10:41:07;0.57;;;0.33;;
54815;SDS011;40715;55.752;37.884;2022-12-07T10:43:35;0.73;;;0.27;;
54815;SDS011;40715;55.752;37.884;2022-12-07T11:00:18;0.37;;;0.30;;
54815;SDS011;40715;55.752;37.884;2022-12-07T11:05:44;0.40;;;0.20;;
54815;SDS011;40715;55.752;37.884;2022-12-07T11:11:13;0.47;;;0.40;;
54815;SDS011;40715;55.752;37.884;2022-12-07T11:14:07;1.00;;;0.47;;
54815;SDS011;40715;55.752;37.884;2022-12-07T11:30:24;1.13;;;0.82;;
54815;SDS011;40715;55.752;37.884;2022-12-07T11:35:55;0.83;;;0.47;;
54815;SDS011;40715;55.752;37.884;2022-12-07T11:38:52;1.13;;;0.23;;
54815;SDS011;40715;55.752;37.884;2022-12-07T11:41:21;1.13;;;0.67;;
54815;SDS011;40715;55.752;37.884;2022-12-07T11:46:57;0.30;;;0.20;;
54815;SDS011;40715;55.752;37.884;2022-12-07T11:52:43;1.00;;;0.57;;
54815;SDS011;40715;55.752;37.884;2022-12-07T11:56:02;0.77;;;0.50;;
54815;SDS011;40715;55.752;37.884;2022-12-07T12:00:55;1.70;;;0.65;;
54815;SDS011;40715;55.752;37.884;2022-12-07T12:03:47;0.53;;;0.50;;
54815;SDS011;40715;55.752;37.884;2022-12-07T12:06:19;0.87;;;0.60;;
54815;SDS011;40715;55.752;37.884;2022-12-07T12:08:49;0.40;;;0.23;;
54815;SDS011;40715;55.752;37.884;2022-12-07T12:17:31;0.85;;;0.52;;
54815;SDS011;40715;55.752;37.884;2022-12-07T12:20:26;0.60;;;0.57;;
54815;SDS011;40715;55.752;37.884;2022-12-07T12:27:52;0.53;;;0.30;;
54815;SDS011;40715;55.752;37.884;2022-12-07T12:33:14;2.22;;;0.77;;
54815;SDS011;40715;55.752;37.884;2022-12-07T12:36:16;1.13;;;0.87;;
54815;SDS011;40715;55.752;37.884;2022-12-07T12:38:51;1.03;;;0.57;;
54815;SDS011;40715;55.752;37.884;2022-12-07T12:46:45;0.97;;;0.73;;
54815;SDS011;40715;55.752;37.884;2022-12-07T12:51:43;2.00;;;0.77;;
54815;SDS011;40715;55.752;37.884;2022-12-07T12:54:18;2.17;;;0.93;;
54815;SDS011;40715;55.752;37.884;2022-12-07T12:59:25;3.03;;;1.50;;
54815;SDS011;40715;55.752;37.884;2022-12-07T13:04:50;0.50;;;0.40;;
54815;SDS011;40715;55.752;37.884;2022-12-07T13:23:36;1.38;;;0.98;;
54815;SDS011;40715;55.752;37.884;2022-12-07T13:33:51;2.80;;;2.13;;
54815;SDS011;40715;55.752;37.884;2022-12-07T13:36:28;1.10;;;0.77;;
54815;SDS011;40715;55.752;37.884;2022-12-07T13:41:41;1.80;;;1.53;;
54815;SDS011;40715;55.752;37.884;2022-12-07T13:44:10;1.30;;;0.77;;
54815;SDS011;40715;55.752;37.884;2022-12-07T13:49:31;3.10;;;1.27;;
54815;SDS011;40715;55.752;37.884;2022-12-07T13:52:08;1.07;;;0.60;;
54815;SDS011;40715;55.752;37.884;2022-12-07T13:57:24;2.00;;;1.00;;
54815;SDS011;40715;55.752;37.884;2022-12-07T13:59:53;2.03;;;0.97;;
54815;SDS011;40715;55.752;37.884;2022-12-07T14:05:09;2.93;;;1.43;;
54815;SDS011;40715;55.752;37.884;2022-12-07T14:07:59;2.50;;;1.53;;
54815;SDS011;40715;55.752;37.884;2022-12-07T14:12:56;1.10;;;0.70;;
54815;SDS011;40715;55.752;37.884;2022-12-07T14:15:34;3.10;;;1.20;;
54815;SDS011;40715;55.752;37.884;2022-12-07T14:18:02;1.70;;;0.93;;
54815;SDS011;40715;55.752;37.884;2022-12-07T14:20:35;1.60;;;0.90;;
54815;SDS011;40715;55.752;37.884;2022-12-07T14:23:03;1.07;;;0.70;;
54815;SDS011;40715;55.752;37.884;2022-12-07T14:25:47;1.60;;;0.83;;
54815;SDS011;40715;55.752;37.884;2022-12-07T14:28:38;1.03;;;0.90;;
54815;SDS011;40715;55.752;37.884;2022-12-07T14:31:08;2.03;;;0.83;;
54815;SDS011;40715;55.752;37.884;2022-12-07T14:33:58;2.40;;;1.37;;
54815;SDS011;40715;55.752;37.884;2022-12-07T14:36:26;1.70;;;1.07;;
54815;SDS011;40715;55.752;37.884;2022-12-07T14:38:53;2.03;;;1.13;;
54815;SDS011;40715;55.752;37.884;2022-12-07T14:41:22;1.17;;;0.80;;
54815;SDS011;40715;55.752;37.884;2022-12-07T14:44:12;3.50;;;1.67;;
54815;SDS011;40715;55.752;37.884;2022-12-07T14:46:49;3.20;;;1.77;;
54815;SDS011;40715;55.752;37.884;2022-12-07T14:49:37;2.60;;;1.27;;
54815;SDS011;40715;55.752;37.884;2022-12-07T14:52:04;0.50;;;0.40;;
54815;SDS011;40715;55.752;37.884;2022-12-07T14:54:57;2.30;;;1.03;;
54815;SDS011;40715;55.752;37.884;2022-12-07T14:57:24;2.83;;;1.50;;
54815;SDS011;40715;55.752;37.884;2022-12-07T14:59:51;0.63;;;0.63;;
54815;SDS011;40715;55.752;37.884;2022-12-07T15:02:18;1.27;;;0.73;;
54815;SDS011;40715;55.752;37.884;2022-12-07T15:04:45;1.87;;;0.80;;
54815;SDS011;40715;55.752;37.884;2022-12-07T15:07:15;1.03;;;0.63;;
54815;SDS011;40715;55.752;37.884;2022-12-07T15:09:47;0.50;;;0.50;;
54815;SDS011;40715;55.752;37.884;2022-12-07T15:12:14;1.13;;;0.63;;
54815;SDS011;40715;55.752;37.884;2022-12-07T15:14:42;2.30;;;0.97;;
54815;SDS011;40715;55.752;37.884;2022-12-07T15:17:10;1.97;;;1.37;;
54815;SDS011;40715;55.752;37.884;2022-12-07T15:19:51;1.30;;;1.03;;
54815;SDS011;40715;55.752;37.884;2022-12-07T15:22:18;2.60;;;1.50;;
54815;SDS011;40715;55.752;37.884;2022-12-07T15:24:45;1.73;;;1.10;;
54815;SDS011;40715;55.752;37.884;2022-12-07T15:27:12;1.13;;;0.77;;
54815;SDS011;40715;55.752;37.884;2022-12-07T15:29:38;2.20;;;1.13;;
54815;SDS011;40715;55.752;37.884;2022-12-07T15:32:05;1.30;;;1.00;;
54815;SDS011;40715;55.752;37.884;2022-12-07T15:34:32;1.50;;;0.83;;
54815;SDS011;40715;55.752;37.884;2022-12-07T15:37:05;1.80;;;1.13;;
54815;SDS011;40715;55.752;37.884;2022-12-07T15:39:33;1.70;;;1.40;;
54815;SDS011;40715;55.752;37.884;2022-12-07T15:42:02;0.77;;;0.50;;
54815;SDS011;40715;55.752;37.884;2022-12-07T15:44:29;1.10;;;0.67;;
54815;SDS011;40715;55.752;37.884;2022-12-07T15:47:15;2.47;;;1.43;;
54815;SDS011;40715;55.752;37.884;2022-12-07T15:49:42;1.20;;;0.80;;
54815;SDS011;40715;55.752;37.884;2022-12-07T15:52:09;1.20;;;0.73;;
54815;SDS011;40715;55.752;37.884;2022-12-07T15:54:36;1.70;;;1.00;;
54815;SDS011;40715;55.752;37.884;2022-12-07T15:57:03;1.90;;;1.37;;
54815;SDS011;40715;55.752;37.884;2022-12-07T15:59:30;1.80;;;0.73;;
54815;SDS011;40715;55.752;37.884;2022-12-07T16:01:57;1.60;;;1.00;;
54815;SDS011;40715;55.752;37.884;2022-12-07T16:04:26;2.43;;;0.80;;
54815;SDS011;40715;55.752;37.884;2022-12-07T16:06:55;1.67;;;1.13;;
54815;SDS011;40715;55.752;37.884;2022-12-07T16:09:22;1.70;;;0.87;;
54815;SDS011;40715;55.752;37.884;2022-12-07T16:11:49;1.50;;;0.93;;
54815;SDS011;40715;55.752;37.884;2022-12-07T16:14:16;1.93;;;1.23;;
54815;SDS011;40715;55.752;37.884;2022-12-07T16:16:43;1.57;;;0.83;;
54815;SDS011;40715;55.752;37.884;2022-12-07T16:19:10;1.20;;;1.10;;
54815;SDS011;40715;55.752;37.884;2022-12-07T16:21:38;0.83;;;0.70;;
54815;SDS011;40715;55.752;37.884;2022-12-07T16:24:05;1.50;;;0.97;;
54815;SDS011;40715;55.752;37.884;2022-12-07T16:26:33;0.77;;;0.47;;
54815;SDS011;40715;55.752;37.884;2022-12-07T16:29:00;1.60;;;1.17;;
54815;SDS011;40715;55.752;37.884;2022-12-07T16:31:27;1.70;;;0.77;;
54815;SDS011;40715;55.752;37.884;2022-12-07T16:33:55;1.20;;;0.80;;
54815;SDS011;40715;55.752;37.884;2022-12-07T16:36:23;1.53;;;1.13;;
54815;SDS011;40715;55.752;37.884;2022-12-07T16:39:13;0.97;;;0.60;;
54815;SDS011;40715;55.752;37.884;2022-12-07T16:41:41;1.80;;;0.87;;
54815;SDS011;40715;55.752;37.884;2022-12-07T16:44:09;0.60;;;0.57;;
54815;SDS011;40715;55.752;37.884;2022-12-07T16:46:39;1.40;;;1.10;;
54815;SDS011;40715;55.752;37.884;2022-12-07T16:49:08;1.37;;;0.90;;
54815;SDS011;40715;55.752;37.884;2022-12-07T16:51:40;2.77;;;0.90;;
54815;SDS011;40715;55.752;37.884;2022-12-07T16:54:09;1.30;;;0.73;;
54815;SDS011;40715;55.752;37.884;2022-12-07T16:56:39;1.33;;;0.87;;
54815;SDS011;40715;55.752;37.884;2022-12-07T16:59:06;1.20;;;0.70;;
54815;SDS011;40715;55.752;37.884;2022-12-07T17:01:34;1.20;;;0.77;;
54815;SDS011;40715;55.752;37.884;2022-12-07T17:04:02;1.27;;;0.80;;
54815;SDS011;40715;55.752;37.884;2022-12-07T17:06:31;1.30;;;0.80;;
54815;SDS011;40715;55.752;37.884;2022-12-07T17:08:58;1.03;;;0.60;;
54815;SDS011;40715;55.752;37.884;2022-12-07T17:11:28;1.23;;;0.80;;
54815;SDS011;40715;55.752;37.884;2022-12-07T17:13:57;0.73;;;0.67;;
54815;SDS011;40715;55.752;37.884;2022-12-07T17:16:42;1.13;;;0.77;;
54815;SDS011;40715;55.752;37.884;2022-12-07T17:19:10;1.87;;;0.70;;
54815;SDS011;40715;55.752;37.884;2022-12-07T17:21:39;1.17;;;0.70;;
54815;SDS011;40715;55.752;37.884;2022-12-07T17:24:07;0.83;;;0.63;;
54815;SDS011;40715;55.752;37.884;2022-12-07T17:26:36;1.23;;;0.70;;